メインページ
METAR-TAF:

METAR-TAF

空港 :

Auburn, インディアナ州, アメリカ合衆国

緯度: 41-18-26N, 経度: 085-03-52W, 海抜: 268m

現時点の気象観測

当レポートは16分前の02:35(UTC)に作成
南西の風 5kt
気温 6°C
湿度 65%
気圧 1015 hPa
視程: 16.1km
晴天

METAR: KGWB 240235Z AUTO 22005KT 10SM CLR 06/00 A2998 RMK AO2

時間: 21:51 (02:51 UTC)


TAF: 見つかりません

4,000以上の空港の気象観測と天気予報(METAR報とTAF報)

利用可能な観測所は地図上に黄色い丸と赤い丸で示す。

丸の上にカーソルを重ねると観測所名を参照できる。

次にクリックすると気象観測と天気予報を参照できる。

マップの切り替え:黒色「×」印の緑ボタンをクリックして拡大、「-」印の緑ボタンをクリックして縮小、緑色の三角印をクリックして隣りの地図に切り替え


METAR-TAF: